createdAt,value
2019-05-26T00:01:56.823Z,9.43
2019-05-26T00:04:27.805Z,9.73
2019-05-26T00:06:58.320Z,10.15
2019-05-26T00:09:29.063Z,10.08
2019-05-26T00:11:59.829Z,9.80
2019-05-26T00:14:30.399Z,10.78
2019-05-26T00:17:00.848Z,10.03
2019-05-26T00:19:31.340Z,10.20
2019-05-26T00:22:02.084Z,10.98
2019-05-26T00:24:32.543Z,10.68
2019-05-26T00:27:03.028Z,11.85
2019-05-26T00:29:33.487Z,11.10
2019-05-26T00:32:04.184Z,11.22
2019-05-26T00:34:34.640Z,12.23
2019-05-26T00:37:05.248Z,11.97
2019-05-26T00:39:36.743Z,12.43
2019-05-26T00:42:07.264Z,12.60
2019-05-26T00:44:37.860Z,13.10
2019-05-26T00:47:08.383Z,13.98
2019-05-26T00:49:38.915Z,14.43
2019-05-26T00:52:10.131Z,13.95
2019-05-26T00:54:47.547Z,13.83
2019-05-26T00:57:18.066Z,15.23
2019-05-26T00:59:48.883Z,16.02
2019-05-26T01:02:19.460Z,16.80
2019-05-26T01:04:50.948Z,17.62
2019-05-26T01:07:21.423Z,18.87
2019-05-26T01:09:51.880Z,19.98
2019-05-26T01:12:22.417Z,19.42
2019-05-26T01:14:52.884Z,20.05
2019-05-26T01:17:23.404Z,20.48
2019-05-26T01:19:53.959Z,21.62
2019-05-26T01:22:24.401Z,21.82
2019-05-26T01:24:54.768Z,22.13
2019-05-26T01:27:25.252Z,24.18
2019-05-26T01:29:55.698Z,23.32
2019-05-26T01:32:26.287Z,23.65
2019-05-26T01:34:56.980Z,24.72
2019-05-26T01:37:27.660Z,25.15
2019-05-26T01:39:58.120Z,25.90
2019-05-26T01:42:28.864Z,27.35
2019-05-26T01:44:59.392Z,26.55
2019-05-26T01:47:29.899Z,28.77
2019-05-26T01:50:00.445Z,28.80
2019-05-26T01:52:32.193Z,28.30
2019-05-26T01:55:09.058Z,28.80
2019-05-26T01:57:39.440Z,29.80
2019-05-26T02:00:11.117Z,30.12
2019-05-26T02:02:41.504Z,30.45
2019-05-26T02:05:12.147Z,31.07
2019-05-26T02:07:42.569Z,32.23
2019-05-26T02:10:13.149Z,33.88
2019-05-26T02:12:43.629Z,34.73
2019-05-26T02:15:14.757Z,33.92
2019-05-26T02:17:45.526Z,34.30
2019-05-26T02:20:16.288Z,35.35
2019-05-26T02:22:46.805Z,34.80
2019-05-26T02:25:18.916Z,35.83
2019-05-26T02:27:49.348Z,36.95
2019-05-26T02:30:20.303Z,37.75
2019-05-26T02:32:50.800Z,37.50
2019-05-26T02:35:21.856Z,37.40
2019-05-26T02:37:59.258Z,36.28
2019-05-26T02:40:29.848Z,36.33
2019-05-26T02:43:00.288Z,38.53
2019-05-26T02:45:30.791Z,38.05
2019-05-26T02:48:01.341Z,38.80
2019-05-26T02:50:38.172Z,37.70
2019-05-26T02:53:08.852Z,39.50
2019-05-26T02:55:43.123Z,38.78
2019-05-26T02:58:13.585Z,37.73
2019-05-26T03:00:45.450Z,37.88
2019-05-26T03:03:16.749Z,38.33
2019-05-26T03:05:47.748Z,37.48
2019-05-26T03:08:18.275Z,37.65
2019-05-26T03:10:50.098Z,37.00
2019-05-26T03:13:21.102Z,37.45
2019-05-26T03:15:53.961Z,39.40
2019-05-26T03:18:24.841Z,36.60
2019-05-26T03:20:58.005Z,37.13
2019-05-26T03:23:34.844Z,35.68
2019-05-26T03:26:05.309Z,36.40
2019-05-26T03:28:36.180Z,35.65
2019-05-26T03:31:07.004Z,35.43
2019-05-26T03:33:37.414Z,34.00
2019-05-26T03:36:10.466Z,35.43
2019-05-26T03:38:39.907Z,34.18
2019-05-26T03:41:10.421Z,33.02
2019-05-26T03:43:41.181Z,33.30
2019-05-26T03:48:55.808Z,32.45
2019-05-26T03:51:26.453Z,32.58
2019-05-26T03:53:57.650Z,32.15
2019-05-26T03:56:35.070Z,30.00
2019-05-26T03:59:05.602Z,30.27
2019-05-26T04:01:35.963Z,31.82
2019-05-26T04:04:11.083Z,31.37
2019-05-26T04:06:41.695Z,30.85
2019-05-26T04:09:12.147Z,30.48
2019-05-26T04:11:42.596Z,30.05
2019-05-26T04:14:13.084Z,31.02
2019-05-26T04:16:43.446Z,29.40
2019-05-26T04:19:14.056Z,28.77
2019-05-26T04:21:44.525Z,30.02
2019-05-26T04:24:18.943Z,29.63
2019-05-26T04:26:49.352Z,28.00
2019-05-26T04:29:20.112Z,29.27
2019-05-26T04:31:51.670Z,28.87
2019-05-26T04:34:22.999Z,27.67
2019-05-26T04:36:53.417Z,27.93
2019-05-26T04:39:23.939Z,27.87
2019-05-26T04:41:54.448Z,26.40
2019-05-26T04:44:24.971Z,26.90
2019-05-26T04:46:55.460Z,27.60
2019-05-26T04:49:36.987Z,28.12
2019-05-26T04:52:04.407Z,27.73
2019-05-26T04:54:34.908Z,26.45
2019-05-26T04:57:05.479Z,26.65
2019-05-26T04:59:35.933Z,26.00
2019-05-26T05:02:06.461Z,27.52
2019-05-26T05:04:50.959Z,28.57
2019-05-26T05:07:21.404Z,27.62
2019-05-26T05:09:51.808Z,26.12
2019-05-26T05:12:22.299Z,26.35
2019-05-26T05:14:52.656Z,25.02
2019-05-26T05:17:23.087Z,24.35
2019-05-26T05:19:53.787Z,22.50
2019-05-26T05:22:24.385Z,23.22
2019-05-26T05:24:54.761Z,22.22
2019-05-26T05:27:31.720Z,20.77
2019-05-26T05:30:02.232Z,19.90
2019-05-26T05:32:33.105Z,19.30
2019-05-26T05:35:03.998Z,18.00
2019-05-26T05:37:34.489Z,18.17
2019-05-26T05:40:06.321Z,17.80
2019-05-26T05:42:36.920Z,17.20
2019-05-26T05:45:09.160Z,16.85
2019-05-26T05:50:18.635Z,14.75
2019-05-26T05:52:49.332Z,13.40
2019-05-26T05:55:21.700Z,13.00
2019-05-26T05:57:52.128Z,11.85
2019-05-26T06:00:23.402Z,12.33
2019-05-26T06:02:54.161Z,12.28
2019-05-26T06:05:30.147Z,10.95
2019-05-26T06:08:00.635Z,10.35
2019-05-26T06:10:31.054Z,10.23
2019-05-26T06:13:01.544Z,10.93
2019-05-26T06:15:32.143Z,9.78
2019-05-26T06:18:02.648Z,9.53
2019-05-26T06:20:33.116Z,9.35
2019-05-26T06:23:03.701Z,9.35
2019-05-26T06:25:34.111Z,9.60
2019-05-26T06:28:04.672Z,9.10
2019-05-26T06:30:35.132Z,8.65
2019-05-26T06:33:05.761Z,10.43
2019-05-26T06:35:36.215Z,9.45
2019-05-26T06:38:06.720Z,8.63
2019-05-26T06:40:37.262Z,9.65
2019-05-26T06:43:07.757Z,9.43
2019-05-26T06:45:38.269Z,9.75
2019-05-26T06:48:08.916Z,8.33
2019-05-26T06:50:45.385Z,8.68
2019-05-26T06:53:15.814Z,8.58
2019-05-26T06:55:46.283Z,7.53
2019-05-26T06:58:16.693Z,8.75
2019-05-26T07:00:47.143Z,8.45
2019-05-26T07:03:17.625Z,7.20
2019-05-26T07:05:51.158Z,7.50
2019-05-26T07:08:21.732Z,8.05
2019-05-26T07:10:52.332Z,8.85
2019-05-26T07:13:22.735Z,7.95
2019-05-26T07:15:53.249Z,7.92
2019-05-26T07:18:23.840Z,8.45
2019-05-26T07:20:54.335Z,7.45
2019-05-26T07:23:24.928Z,8.33
2019-05-26T07:25:55.731Z,8.60
2019-05-26T07:28:26.206Z,8.05
2019-05-26T07:30:56.705Z,8.68
2019-05-26T07:33:33.634Z,9.00
2019-05-26T07:36:04.173Z,8.68
2019-05-26T07:38:34.672Z,8.95
2019-05-26T07:41:05.552Z,9.50
2019-05-26T07:43:36.038Z,8.50
2019-05-26T07:46:06.652Z,9.50
2019-05-26T07:48:37.025Z,9.15
2019-05-26T07:51:07.525Z,9.25
2019-05-26T07:53:38.039Z,9.38
2019-05-26T07:56:08.668Z,8.53
2019-05-26T07:58:39.318Z,8.90
2019-05-26T08:01:09.795Z,8.18
2019-05-26T08:03:40.246Z,8.25
2019-05-26T08:06:11.011Z,7.37
2019-05-26T08:08:43.224Z,7.20
2019-05-26T08:11:13.687Z,7.87
2019-05-26T08:13:44.288Z,7.83
2019-05-26T08:16:15.192Z,8.18
2019-05-26T08:18:45.910Z,7.95
2019-05-26T08:21:17.263Z,7.62
2019-05-26T08:23:47.812Z,7.22
2019-05-26T08:26:18.307Z,7.42
2019-05-26T08:28:49.869Z,7.35
2019-05-26T08:31:20.304Z,7.85
2019-05-26T08:33:51.079Z,7.30
2019-05-26T08:36:21.566Z,7.05
2019-05-26T08:38:52.144Z,6.83
2019-05-26T08:41:22.527Z,6.80
2019-05-26T08:43:52.948Z,6.25
2019-05-26T08:46:23.530Z,6.35
2019-05-26T08:48:53.907Z,7.17
2019-05-26T08:51:24.681Z,7.80
2019-05-26T08:53:55.145Z,7.35
2019-05-26T08:56:25.704Z,7.60
2019-05-26T08:58:56.745Z,6.80
2019-05-26T09:01:27.424Z,6.90
2019-05-26T09:03:58.068Z,7.28
2019-05-26T09:06:35.608Z,6.83
2019-05-26T09:09:07.593Z,7.60
2019-05-26T09:11:38.993Z,7.62
2019-05-26T09:14:09.425Z,7.30
2019-05-26T09:16:39.868Z,7.20
2019-05-26T09:19:10.352Z,7.25
2019-05-26T09:21:40.817Z,7.47
2019-05-26T09:24:11.259Z,6.87
2019-05-26T09:26:41.681Z,7.40
2019-05-26T09:29:12.242Z,7.78
2019-05-26T09:31:42.636Z,7.60
2019-05-26T09:34:13.403Z,7.05
2019-05-26T09:36:43.796Z,7.30
2019-05-26T09:39:21.184Z,7.62
2019-05-26T09:41:51.622Z,7.67
2019-05-26T09:44:22.040Z,7.28
2019-05-26T09:46:53.744Z,7.60
2019-05-26T09:49:24.204Z,7.90
2019-05-26T09:51:55.465Z,7.65
2019-05-26T09:54:25.896Z,7.78
2019-05-26T09:56:56.394Z,7.42
2019-05-26T09:59:26.892Z,8.45
2019-05-26T10:01:57.361Z,7.65
2019-05-26T10:04:27.929Z,8.33
2019-05-26T10:07:10.614Z,8.15
2019-05-26T10:09:39.388Z,8.25
2019-05-26T10:12:09.849Z,7.65
2019-05-26T10:14:40.404Z,7.37
2019-05-26T10:17:10.887Z,7.58
2019-05-26T10:19:41.399Z,6.45
2019-05-26T10:22:12.786Z,6.65
2019-05-26T10:24:43.187Z,6.47
2019-05-26T10:27:13.656Z,5.92
2019-05-26T10:29:44.116Z,5.22
2019-05-26T10:32:14.549Z,5.12
2019-05-26T10:34:50.764Z,5.60
2019-05-26T10:37:21.254Z,5.50
2019-05-26T10:39:51.722Z,4.90
2019-05-26T10:42:22.122Z,5.03
2019-05-26T10:44:53.559Z,5.15
2019-05-26T10:47:24.017Z,3.98
2019-05-26T10:49:54.421Z,4.42
2019-05-26T10:55:01.040Z,4.40
2019-05-26T10:57:32.533Z,4.00
2019-05-26T11:00:03.122Z,3.90
2019-05-26T11:02:35.869Z,4.00
2019-05-26T11:05:07.196Z,3.30
2019-05-26T11:07:38.588Z,4.10
2019-05-26T11:10:16.781Z,3.77
2019-05-26T11:12:47.273Z,3.67
2019-05-26T11:15:18.206Z,3.98
2019-05-26T11:17:52.917Z,3.22
2019-05-26T11:20:23.473Z,3.20
2019-05-26T11:22:53.842Z,4.35
2019-05-26T11:25:24.443Z,5.37
2019-05-26T11:27:54.900Z,5.12
2019-05-26T11:30:26.487Z,5.85
2019-05-26T11:32:59.580Z,5.62
2019-05-26T11:35:30.260Z,6.03
2019-05-26T11:38:00.711Z,6.45
2019-05-26T11:40:31.249Z,6.00
2019-05-26T11:43:15.820Z,5.55
2019-05-26T11:45:39.632Z,5.92
2019-05-26T11:48:10.085Z,5.80
2019-05-26T11:50:40.584Z,4.78
2019-05-26T11:53:14.579Z,4.90
2019-05-26T11:55:48.850Z,5.17
2019-05-26T11:58:22.623Z,5.37
2019-05-26T12:00:53.065Z,4.78
2019-05-26T12:03:23.588Z,4.35
2019-05-26T12:05:54.012Z,3.90
2019-05-26T12:08:25.405Z,4.62
2019-05-26T12:11:01.817Z,4.60
2019-05-26T12:13:32.209Z,5.08
2019-05-26T12:16:02.595Z,4.92
2019-05-26T12:18:33.122Z,4.15
2019-05-26T12:21:03.692Z,3.72
2019-05-26T12:23:37.000Z,4.08
2019-05-26T12:26:07.396Z,3.30
2019-05-26T12:28:38.134Z,3.20
2019-05-26T12:31:08.657Z,3.42
2019-05-26T12:33:39.075Z,2.92
2019-05-26T12:36:10.087Z,3.50
2019-05-26T12:38:50.876Z,3.37
2019-05-26T12:41:22.401Z,3.22
2019-05-26T12:43:52.853Z,3.20
2019-05-26T12:46:23.362Z,3.50
2019-05-26T12:48:53.823Z,3.00
2019-05-26T12:51:24.458Z,3.17
2019-05-26T12:59:07.040Z,3.25
2019-05-26T13:01:37.418Z,2.92
2019-05-26T13:04:11.157Z,2.80
2019-05-26T13:06:41.614Z,2.70
2019-05-26T13:09:16.896Z,2.42
2019-05-26T13:11:47.626Z,2.92
2019-05-26T13:14:27.585Z,3.05
2019-05-26T13:17:01.385Z,3.12
2019-05-26T13:19:30.579Z,4.20
2019-05-26T13:22:01.126Z,3.85
2019-05-26T13:24:31.640Z,4.35
2019-05-26T13:27:02.132Z,4.90
2019-05-26T13:29:32.514Z,5.90
2019-05-26T13:32:03.097Z,5.22
2019-05-26T13:34:35.796Z,5.08
2019-05-26T13:37:06.084Z,5.33
2019-05-26T13:39:36.688Z,4.67
2019-05-26T13:42:07.148Z,5.10
2019-05-26T13:44:37.512Z,4.92
2019-05-26T13:47:08.032Z,4.20
2019-05-26T13:49:38.544Z,4.37
2019-05-26T13:52:09.073Z,4.17
2019-05-26T13:54:43.349Z,4.30
2019-05-26T13:57:13.893Z,4.00
2019-05-26T13:59:44.368Z,3.42
2019-05-26T14:02:14.968Z,3.10
2019-05-26T14:04:45.365Z,3.40
2019-05-26T14:07:15.977Z,3.58
2019-05-26T14:09:46.549Z,3.27
2019-05-26T14:12:17.728Z,3.95
2019-05-26T14:14:56.015Z,3.62
2019-05-26T14:17:28.703Z,3.70
2019-05-26T14:20:06.113Z,3.83
2019-05-26T14:22:36.624Z,3.90
2019-05-26T14:25:07.537Z,3.60
2019-05-26T14:27:44.813Z,4.17
2019-05-26T14:30:18.483Z,3.40
2019-05-26T14:32:48.964Z,3.85
2019-05-26T14:35:19.323Z,3.65
2019-05-26T14:37:50.052Z,3.60
2019-05-26T14:40:20.669Z,4.22
2019-05-26T14:42:51.115Z,3.72
2019-05-26T14:45:21.690Z,3.83
2019-05-26T14:47:58.310Z,4.22
2019-05-26T14:50:28.908Z,4.20
2019-05-26T14:52:59.269Z,3.58
2019-05-26T14:58:16.175Z,3.87
2019-05-26T15:00:45.417Z,3.55
2019-05-26T15:03:16.053Z,3.67
2019-05-26T15:06:05.554Z,3.40
2019-05-26T15:08:33.445Z,4.12
2019-05-26T15:11:03.996Z,3.67
2019-05-26T15:13:35.060Z,4.00
2019-05-26T15:16:10.619Z,4.35
2019-05-26T15:18:47.236Z,4.30
2019-05-26T15:21:18.286Z,4.75
2019-05-26T15:23:48.956Z,4.42
2019-05-26T15:26:19.532Z,5.80
2019-05-26T15:28:49.945Z,5.30
2019-05-26T15:31:20.376Z,5.83
2019-05-26T15:33:50.924Z,5.95
2019-05-26T15:36:21.483Z,5.47
2019-05-26T15:38:52.022Z,5.10
2019-05-26T15:41:22.466Z,5.08
2019-05-26T15:43:54.026Z,4.65
2019-05-26T15:46:25.690Z,5.10
2019-05-26T15:48:56.603Z,3.85
2019-05-26T15:51:27.632Z,3.67
2019-05-26T15:56:35.131Z,3.55
2019-05-26T15:59:05.839Z,3.50
2019-05-26T16:01:36.460Z,3.20
2019-05-26T16:04:07.103Z,3.47
2019-05-26T16:06:37.734Z,3.80
2019-05-26T16:09:08.267Z,3.15
2019-05-26T16:11:43.359Z,2.67
2019-05-26T16:14:13.088Z,2.47
2019-05-26T16:16:50.656Z,2.77
2019-05-26T16:19:27.077Z,2.15
2019-05-26T16:21:57.773Z,2.27
2019-05-26T16:24:28.364Z,2.27
2019-05-26T16:27:02.033Z,2.30
2019-05-26T16:29:31.068Z,2.65
2019-05-26T16:32:01.568Z,2.17
2019-05-26T16:34:32.116Z,1.85
2019-05-26T16:37:03.477Z,2.22
2019-05-26T16:39:36.871Z,2.30
2019-05-26T16:44:44.340Z,2.15
2019-05-26T16:47:15.983Z,2.83
2019-05-26T16:49:46.648Z,3.10
2019-05-26T16:52:19.177Z,2.45
2019-05-26T16:54:50.381Z,2.17
2019-05-26T16:57:21.157Z,2.60
2019-05-26T16:59:51.668Z,2.50
2019-05-26T17:02:22.140Z,2.50
2019-05-26T17:04:52.610Z,2.70
2019-05-26T17:07:23.136Z,2.92
2019-05-26T17:09:54.438Z,3.27
2019-05-26T17:12:25.023Z,2.83
2019-05-26T17:17:32.581Z,3.37
2019-05-26T17:20:03.128Z,2.72
2019-05-26T17:22:33.702Z,3.70
2019-05-26T17:25:04.549Z,3.35
2019-05-26T17:27:35.185Z,4.17
2019-05-26T17:30:06.281Z,2.77
2019-05-26T17:32:36.887Z,2.75
2019-05-26T17:35:09.345Z,2.45
2019-05-26T17:37:39.757Z,2.70
2019-05-26T17:40:10.439Z,2.83
2019-05-26T17:42:41.014Z,2.67
2019-05-26T17:45:11.847Z,2.75
2019-05-26T17:47:42.435Z,3.20
2019-05-26T17:50:14.864Z,3.15
2019-05-26T17:52:45.439Z,3.22
2019-05-26T17:55:16.493Z,9.08
2019-05-26T17:57:46.989Z,3.22
2019-05-26T18:00:18.004Z,4.10
2019-05-26T18:02:48.667Z,3.75
2019-05-26T18:05:19.051Z,4.30
2019-05-26T18:07:49.756Z,4.37
2019-05-26T18:10:21.561Z,4.65
2019-05-26T18:12:52.063Z,4.22
2019-05-26T18:15:22.760Z,5.22
2019-05-26T18:17:59.781Z,4.67
2019-05-26T18:20:30.424Z,5.65
2019-05-26T18:23:00.951Z,5.05
2019-05-26T18:25:31.412Z,4.95
2019-05-26T18:28:01.885Z,5.53
2019-05-26T18:30:32.497Z,6.03
2019-05-26T18:33:03.221Z,6.45
2019-05-26T18:35:34.049Z,7.05
2019-05-26T18:38:05.030Z,7.60
2019-05-26T18:40:35.690Z,7.12
2019-05-26T18:43:06.324Z,6.83
2019-05-26T18:45:39.009Z,7.58
2019-05-26T18:48:09.664Z,7.47
2019-05-26T18:50:45.087Z,8.63
2019-05-26T18:53:15.708Z,9.45
2019-05-26T18:55:46.321Z,8.93
2019-05-26T18:58:17.013Z,8.40
2019-05-26T19:00:48.022Z,9.13
2019-05-26T19:03:18.630Z,7.37
2019-05-26T19:05:49.168Z,7.55
2019-05-26T19:08:19.797Z,6.95
2019-05-26T19:10:50.435Z,7.67
2019-05-26T19:13:21.000Z,6.08
2019-05-26T19:18:48.520Z,7.05
2019-05-26T19:21:25.153Z,6.15
2019-05-26T19:23:55.710Z,4.78
2019-05-26T19:26:27.792Z,4.60
2019-05-26T19:28:58.868Z,4.05
2019-05-26T19:31:29.413Z,3.92
2019-05-26T19:34:00.910Z,3.47
2019-05-26T19:36:31.490Z,3.83
2019-05-26T19:39:10.503Z,3.75
2019-05-26T19:41:40.998Z,4.00
2019-05-26T19:44:16.165Z,3.55
2019-05-26T19:46:46.795Z,3.75
2019-05-26T19:49:17.288Z,3.60
2019-05-26T19:51:51.912Z,3.75
2019-05-26T19:54:22.436Z,4.28
2019-05-26T19:56:53.058Z,4.50
2019-05-26T19:59:27.529Z,4.35
2019-05-26T20:01:58.214Z,4.35
2019-05-26T20:04:28.800Z,4.12
2019-05-26T20:06:59.353Z,4.60
2019-05-26T20:12:06.887Z,4.20
2019-05-26T20:14:37.464Z,4.83
2019-05-26T20:17:08.166Z,5.72
2019-05-26T20:19:39.196Z,6.30
2019-05-26T20:22:13.728Z,7.60
2019-05-26T20:24:44.283Z,7.08
2019-05-26T20:27:14.751Z,7.00
2019-05-26T20:29:45.309Z,6.85
2019-05-26T20:32:17.852Z,6.80
2019-05-26T20:34:50.329Z,6.17
2019-05-26T20:37:20.974Z,6.47
2019-05-26T20:39:54.920Z,6.50
2019-05-26T20:42:25.374Z,7.65
2019-05-26T20:44:56.214Z,8.53
2019-05-26T20:47:26.684Z,9.33
2019-05-26T20:49:57.260Z,8.70
2019-05-26T20:52:27.854Z,9.43
2019-05-26T20:54:58.459Z,9.08
2019-05-26T20:57:29.067Z,9.03
2019-05-26T21:00:05.029Z,8.48
2019-05-26T21:02:36.880Z,7.33
2019-05-26T21:05:08.402Z,7.85
2019-05-26T21:07:38.955Z,8.13
2019-05-26T21:10:09.610Z,8.38
2019-05-26T21:12:40.132Z,7.92
2019-05-26T21:15:12.285Z,8.95
2019-05-26T21:17:42.767Z,8.43
2019-05-26T21:22:56.645Z,8.38
2019-05-26T21:25:27.269Z,8.73
2019-05-26T21:27:57.748Z,8.13
2019-05-26T21:30:28.337Z,8.60
2019-05-26T21:32:59.059Z,8.98
2019-05-26T21:35:29.784Z,9.10
2019-05-26T21:38:00.292Z,8.93
2019-05-26T21:40:30.881Z,9.55
2019-05-26T21:43:01.454Z,10.30
2019-05-26T21:45:32.157Z,9.73
2019-05-26T21:48:03.537Z,9.85
2019-05-26T21:50:34.080Z,9.58
2019-05-26T21:53:04.920Z,10.05
2019-05-26T21:55:35.690Z,9.33
2019-05-26T21:58:06.560Z,9.20
2019-05-26T22:00:42.407Z,9.93
2019-05-26T22:03:15.412Z,9.15
2019-05-26T22:05:51.354Z,8.83
2019-05-26T22:10:58.138Z,8.98
2019-05-26T22:13:28.757Z,7.92
2019-05-26T22:15:59.344Z,8.43
2019-05-26T22:18:29.969Z,8.30
2019-05-26T22:21:01.051Z,8.40
2019-05-26T22:23:37.220Z,7.50
2019-05-26T22:26:07.674Z,7.35
2019-05-26T22:28:38.148Z,7.78
2019-05-26T22:31:09.470Z,7.97
2019-05-26T22:33:40.106Z,8.05
2019-05-26T22:36:10.756Z,7.50
2019-05-26T22:38:41.237Z,7.87
2019-05-26T22:41:11.668Z,7.15
2019-05-26T22:43:42.129Z,7.75
2019-05-26T22:46:12.893Z,7.22
2019-05-26T22:48:43.689Z,6.85
2019-05-26T22:51:14.236Z,6.35
2019-05-26T22:53:44.903Z,6.35
2019-05-26T22:56:15.439Z,6.67
2019-05-26T22:58:46.007Z,7.22
2019-05-26T23:01:20.016Z,6.70
2019-05-26T23:03:51.195Z,6.10
2019-05-26T23:06:22.237Z,5.95
2019-05-26T23:08:52.713Z,6.22
2019-05-26T23:11:23.156Z,5.37
2019-05-26T23:13:54.044Z,5.85
2019-05-26T23:16:25.721Z,5.47
2019-05-26T23:18:56.293Z,5.15
2019-05-26T23:21:26.864Z,6.12
2019-05-26T23:24:03.371Z,5.58
2019-05-26T23:26:33.953Z,5.67
2019-05-26T23:29:04.619Z,5.72
2019-05-26T23:31:35.256Z,6.00
2019-05-26T23:34:06.012Z,5.53
2019-05-26T23:36:36.589Z,5.37
2019-05-26T23:39:07.442Z,5.03
2019-05-26T23:41:38.033Z,4.83
2019-05-26T23:44:08.694Z,4.65
2019-05-26T23:46:39.184Z,3.98
2019-05-26T23:49:09.739Z,3.87
2019-05-26T23:51:40.269Z,3.70
2019-05-26T23:54:11.036Z,3.27
2019-05-26T23:56:41.616Z,3.58
